sensor_id;sensor_type;location;lat;lon;timestamp;P1;durP1;ratioP1;P2;durP2;ratioP2
68178;SDS011;54998;42.656;23.382;2023-01-04T00:00:04;14.88;;;7.30;;
68178;SDS011;54998;42.656;23.382;2023-01-04T00:02:30;22.58;;;9.43;;
68178;SDS011;54998;42.656;23.382;2023-01-04T00:04:55;32.50;;;16.45;;
68178;SDS011;54998;42.656;23.382;2023-01-04T00:07:21;52.83;;;24.80;;
68178;SDS011;54998;42.656;23.382;2023-01-04T00:09:46;46.40;;;23.65;;
68178;SDS011;54998;42.656;23.382;2023-01-04T00:12:12;47.22;;;22.52;;
68178;SDS011;54998;42.656;23.382;2023-01-04T00:14:37;55.17;;;27.50;;
68178;SDS011;54998;42.656;23.382;2023-01-04T00:17:02;53.65;;;22.83;;
68178;SDS011;54998;42.656;23.382;2023-01-04T00:19:28;30.38;;;13.65;;
68178;SDS011;54998;42.656;23.382;2023-01-04T00:21:53;23.83;;;11.65;;
68178;SDS011;54998;42.656;23.382;2023-01-04T00:24:19;42.78;;;19.60;;
68178;SDS011;54998;42.656;23.382;2023-01-04T00:26:57;21.88;;;10.40;;
68178;SDS011;54998;42.656;23.382;2023-01-04T00:29:23;41.22;;;20.60;;
68178;SDS011;54998;42.656;23.382;2023-01-04T00:31:48;31.77;;;14.25;;
68178;SDS011;54998;42.656;23.382;2023-01-04T00:34:14;49.13;;;22.67;;
68178;SDS011;54998;42.656;23.382;2023-01-04T00:36:41;13.88;;;8.25;;
68178;SDS011;54998;42.656;23.382;2023-01-04T00:39:08;23.20;;;12.43;;
68178;SDS011;54998;42.656;23.382;2023-01-04T00:41:42;23.13;;;11.35;;
68178;SDS011;54998;42.656;23.382;2023-01-04T00:44:09;31.35;;;15.82;;
68178;SDS011;54998;42.656;23.382;2023-01-04T00:46:36;25.30;;;13.13;;
68178;SDS011;54998;42.656;23.382;2023-01-04T00:49:01;14.50;;;6.90;;
68178;SDS011;54998;42.656;23.382;2023-01-04T00:51:28;19.92;;;7.80;;
68178;SDS011;54998;42.656;23.382;2023-01-04T00:53:54;32.25;;;12.70;;
68178;SDS011;54998;42.656;23.382;2023-01-04T00:56:20;28.65;;;14.73;;
68178;SDS011;54998;42.656;23.382;2023-01-04T00:58:45;20.02;;;8.73;;
68178;SDS011;54998;42.656;23.382;2023-01-04T01:01:11;27.15;;;11.73;;
68178;SDS011;54998;42.656;23.382;2023-01-04T01:03:36;24.98;;;10.80;;
68178;SDS011;54998;42.656;23.382;2023-01-04T01:06:03;23.60;;;12.02;;
68178;SDS011;54998;42.656;23.382;2023-01-04T01:08:31;23.65;;;11.88;;
68178;SDS011;54998;42.656;23.382;2023-01-04T01:11:01;35.97;;;18.88;;
68178;SDS011;54998;42.656;23.382;2023-01-04T01:13:28;36.40;;;17.45;;
68178;SDS011;54998;42.656;23.382;2023-01-04T01:15:54;44.80;;;21.08;;
68178;SDS011;54998;42.656;23.382;2023-01-04T01:18:19;41.75;;;20.63;;
68178;SDS011;54998;42.656;23.382;2023-01-04T01:20:45;40.53;;;20.25;;
68178;SDS011;54998;42.656;23.382;2023-01-04T01:23:14;45.95;;;22.10;;
68178;SDS011;54998;42.656;23.382;2023-01-04T01:25:40;41.97;;;21.63;;
68178;SDS011;54998;42.656;23.382;2023-01-04T01:28:06;27.65;;;13.30;;
68178;SDS011;54998;42.656;23.382;2023-01-04T01:30:32;40.30;;;20.35;;
68178;SDS011;54998;42.656;23.382;2023-01-04T01:32:58;44.35;;;21.75;;
68178;SDS011;54998;42.656;23.382;2023-01-04T01:35:23;26.45;;;13.57;;
68178;SDS011;54998;42.656;23.382;2023-01-04T01:38:09;37.83;;;18.45;;
68178;SDS011;54998;42.656;23.382;2023-01-04T01:40:39;42.92;;;20.33;;
68178;SDS011;54998;42.656;23.382;2023-01-04T01:43:08;42.45;;;19.75;;
68178;SDS011;54998;42.656;23.382;2023-01-04T01:45:46;26.52;;;12.10;;
68178;SDS011;54998;42.656;23.382;2023-01-04T01:48:14;32.22;;;13.18;;
68178;SDS011;54998;42.656;23.382;2023-01-04T01:50:48;24.13;;;10.15;;
68178;SDS011;54998;42.656;23.382;2023-01-04T01:53:16;18.30;;;8.07;;
68178;SDS011;54998;42.656;23.382;2023-01-04T01:55:42;14.38;;;8.63;;
68178;SDS011;54998;42.656;23.382;2023-01-04T01:58:11;17.63;;;8.55;;
68178;SDS011;54998;42.656;23.382;2023-01-04T02:00:41;15.48;;;7.97;;
68178;SDS011;54998;42.656;23.382;2023-01-04T02:03:52;13.32;;;6.30;;
68178;SDS011;54998;42.656;23.382;2023-01-04T02:05:56;14.55;;;6.85;;
68178;SDS011;54998;42.656;23.382;2023-01-04T02:08:24;16.75;;;8.57;;
68178;SDS011;54998;42.656;23.382;2023-01-04T02:10:50;14.65;;;8.10;;
68178;SDS011;54998;42.656;23.382;2023-01-04T02:13:19;15.73;;;8.15;;
68178;SDS011;54998;42.656;23.382;2023-01-04T02:18:55;19.50;;;8.70;;
68178;SDS011;54998;42.656;23.382;2023-01-04T02:22:11;16.02;;;7.93;;
68178;SDS011;54998;42.656;23.382;2023-01-04T02:24:51;9.48;;;4.63;;
68178;SDS011;54998;42.656;23.382;2023-01-04T02:35:38;14.23;;;7.60;;
68178;SDS011;54998;42.656;23.382;2023-01-04T02:38:18;19.15;;;9.55;;
68178;SDS011;54998;42.656;23.382;2023-01-04T02:44:00;12.48;;;5.85;;
68178;SDS011;54998;42.656;23.382;2023-01-04T02:47:00;18.05;;;8.82;;
68178;SDS011;54998;42.656;23.382;2023-01-04T02:49:30;22.02;;;9.32;;
68178;SDS011;54998;42.656;23.382;2023-01-04T02:52:14;17.27;;;7.30;;
68178;SDS011;54998;42.656;23.382;2023-01-04T02:54:40;19.52;;;9.18;;
68178;SDS011;54998;42.656;23.382;2023-01-04T02:57:17;15.95;;;8.93;;
68178;SDS011;54998;42.656;23.382;2023-01-04T03:02:55;18.98;;;7.40;;
68178;SDS011;54998;42.656;23.382;2023-01-04T03:05:46;17.13;;;9.02;;
68178;SDS011;54998;42.656;23.382;2023-01-04T03:11:09;14.43;;;7.20;;
68178;SDS011;54998;42.656;23.382;2023-01-04T03:14:13;14.10;;;8.00;;
68178;SDS011;54998;42.656;23.382;2023-01-04T03:16:43;15.68;;;7.57;;
68178;SDS011;54998;42.656;23.382;2023-01-04T03:19:11;21.02;;;10.48;;
68178;SDS011;54998;42.656;23.382;2023-01-04T03:21:59;19.48;;;9.23;;
68178;SDS011;54998;42.656;23.382;2023-01-04T03:24:25;17.30;;;8.70;;
68178;SDS011;54998;42.656;23.382;2023-01-04T03:27:09;18.50;;;8.95;;
68178;SDS011;54998;42.656;23.382;2023-01-04T03:29:56;20.45;;;10.52;;
68178;SDS011;54998;42.656;23.382;2023-01-04T03:35:44;19.50;;;9.38;;
68178;SDS011;54998;42.656;23.382;2023-01-04T03:38:16;18.05;;;9.13;;
68178;SDS011;54998;42.656;23.382;2023-01-04T03:41:09;17.02;;;8.75;;
68178;SDS011;54998;42.656;23.382;2023-01-04T03:44:10;14.32;;;7.25;;
68178;SDS011;54998;42.656;23.382;2023-01-04T03:47:16;19.83;;;9.32;;
68178;SDS011;54998;42.656;23.382;2023-01-04T03:50:16;21.55;;;9.65;;
68178;SDS011;54998;42.656;23.382;2023-01-04T03:52:46;20.38;;;9.95;;
68178;SDS011;54998;42.656;23.382;2023-01-04T03:55:14;19.52;;;9.30;;
68178;SDS011;54998;42.656;23.382;2023-01-04T03:57:41;16.52;;;7.85;;
68178;SDS011;54998;42.656;23.382;2023-01-04T04:00:10;21.60;;;10.13;;
68178;SDS011;54998;42.656;23.382;2023-01-04T04:02:38;22.10;;;9.13;;
68178;SDS011;54998;42.656;23.382;2023-01-04T04:05:05;19.38;;;9.57;;
68178;SDS011;54998;42.656;23.382;2023-01-04T04:07:49;22.50;;;11.35;;
68178;SDS011;54998;42.656;23.382;2023-01-04T04:10:33;14.77;;;7.53;;
68178;SDS011;54998;42.656;23.382;2023-01-04T04:12:59;15.93;;;7.47;;
68178;SDS011;54998;42.656;23.382;2023-01-04T04:15:24;20.17;;;8.90;;
68178;SDS011;54998;42.656;23.382;2023-01-04T04:17:49;20.65;;;9.13;;
68178;SDS011;54998;42.656;23.382;2023-01-04T04:20:15;16.27;;;6.68;;
68178;SDS011;54998;42.656;23.382;2023-01-04T04:22:40;20.20;;;7.47;;
68178;SDS011;54998;42.656;23.382;2023-01-04T04:25:06;15.35;;;7.97;;
68178;SDS011;54998;42.656;23.382;2023-01-04T04:27:31;17.80;;;9.88;;
68178;SDS011;54998;42.656;23.382;2023-01-04T04:29:57;19.67;;;9.63;;
68178;SDS011;54998;42.656;23.382;2023-01-04T04:32:22;17.73;;;9.02;;
68178;SDS011;54998;42.656;23.382;2023-01-04T04:34:48;22.13;;;9.73;;
68178;SDS011;54998;42.656;23.382;2023-01-04T04:37:13;15.20;;;7.25;;
68178;SDS011;54998;42.656;23.382;2023-01-04T04:39:39;17.27;;;7.95;;
68178;SDS011;54998;42.656;23.382;2023-01-04T04:42:04;16.15;;;9.32;;
68178;SDS011;54998;42.656;23.382;2023-01-04T04:44:29;17.70;;;7.97;;
68178;SDS011;54998;42.656;23.382;2023-01-04T04:46:55;20.60;;;10.48;;
68178;SDS011;54998;42.656;23.382;2023-01-04T04:49:20;17.88;;;8.68;;
68178;SDS011;54998;42.656;23.382;2023-01-04T04:51:46;17.40;;;9.00;;
68178;SDS011;54998;42.656;23.382;2023-01-04T04:54:15;20.58;;;8.00;;
68178;SDS011;54998;42.656;23.382;2023-01-04T04:56:43;19.98;;;8.02;;
68178;SDS011;54998;42.656;23.382;2023-01-04T04:59:08;17.77;;;8.45;;
68178;SDS011;54998;42.656;23.382;2023-01-04T05:01:33;24.38;;;10.23;;
68178;SDS011;54998;42.656;23.382;2023-01-04T05:03:59;21.50;;;9.35;;
68178;SDS011;54998;42.656;23.382;2023-01-04T05:06:24;17.45;;;7.97;;
68178;SDS011;54998;42.656;23.382;2023-01-04T05:08:51;20.67;;;9.52;;
68178;SDS011;54998;42.656;23.382;2023-01-04T05:11:16;23.88;;;9.15;;
68178;SDS011;54998;42.656;23.382;2023-01-04T05:14:02;14.90;;;7.20;;
68178;SDS011;54998;42.656;23.382;2023-01-04T05:16:27;13.60;;;5.85;;
68178;SDS011;54998;42.656;23.382;2023-01-04T05:18:52;15.95;;;7.40;;
68178;SDS011;54998;42.656;23.382;2023-01-04T05:21:18;20.35;;;9.35;;
68178;SDS011;54998;42.656;23.382;2023-01-04T05:23:43;15.77;;;7.03;;
68178;SDS011;54998;42.656;23.382;2023-01-04T05:26:08;18.90;;;10.43;;
68178;SDS011;54998;42.656;23.382;2023-01-04T05:28:34;18.48;;;8.23;;
68178;SDS011;54998;42.656;23.382;2023-01-04T05:30:59;16.17;;;7.50;;
68178;SDS011;54998;42.656;23.382;2023-01-04T05:33:26;16.52;;;8.68;;
68178;SDS011;54998;42.656;23.382;2023-01-04T05:35:53;17.17;;;7.32;;
68178;SDS011;54998;42.656;23.382;2023-01-04T05:38:20;19.45;;;9.20;;
68178;SDS011;54998;42.656;23.382;2023-01-04T05:40:46;17.50;;;8.90;;
68178;SDS011;54998;42.656;23.382;2023-01-04T05:43:12;17.60;;;8.43;;
68178;SDS011;54998;42.656;23.382;2023-01-04T05:45:38;14.27;;;6.38;;
68178;SDS011;54998;42.656;23.382;2023-01-04T05:48:05;19.75;;;9.38;;
68178;SDS011;54998;42.656;23.382;2023-01-04T05:50:30;17.52;;;8.07;;
68178;SDS011;54998;42.656;23.382;2023-01-04T05:52:56;22.08;;;9.65;;
68178;SDS011;54998;42.656;23.382;2023-01-04T05:55:21;19.77;;;9.98;;
68178;SDS011;54998;42.656;23.382;2023-01-04T05:57:47;21.60;;;9.93;;
68178;SDS011;54998;42.656;23.382;2023-01-04T06:00:12;17.45;;;8.68;;
68178;SDS011;54998;42.656;23.382;2023-01-04T06:02:38;20.52;;;8.63;;
68178;SDS011;54998;42.656;23.382;2023-01-04T06:05:07;21.00;;;8.90;;
68178;SDS011;54998;42.656;23.382;2023-01-04T06:07:37;19.02;;;7.45;;
68178;SDS011;54998;42.656;23.382;2023-01-04T06:10:04;23.08;;;10.02;;
68178;SDS011;54998;42.656;23.382;2023-01-04T06:12:31;13.02;;;6.60;;
68178;SDS011;54998;42.656;23.382;2023-01-04T06:14:57;14.48;;;7.13;;
68178;SDS011;54998;42.656;23.382;2023-01-04T06:17:22;16.50;;;6.93;;
68178;SDS011;54998;42.656;23.382;2023-01-04T06:19:48;15.48;;;8.10;;
68178;SDS011;54998;42.656;23.382;2023-01-04T06:22:13;17.63;;;9.30;;
68178;SDS011;54998;42.656;23.382;2023-01-04T06:24:39;22.23;;;9.20;;
68178;SDS011;54998;42.656;23.382;2023-01-04T06:27:04;20.77;;;7.22;;
68178;SDS011;54998;42.656;23.382;2023-01-04T06:29:29;13.88;;;7.05;;
68178;SDS011;54998;42.656;23.382;2023-01-04T06:31:55;12.25;;;6.80;;
68178;SDS011;54998;42.656;23.382;2023-01-04T06:34:20;20.60;;;10.15;;
68178;SDS011;54998;42.656;23.382;2023-01-04T06:36:46;18.58;;;9.32;;
68178;SDS011;54998;42.656;23.382;2023-01-04T06:39:11;16.40;;;7.65;;
68178;SDS011;54998;42.656;23.382;2023-01-04T06:41:36;18.15;;;8.02;;
68178;SDS011;54998;42.656;23.382;2023-01-04T06:44:02;14.55;;;7.45;;
68178;SDS011;54998;42.656;23.382;2023-01-04T06:46:28;19.95;;;8.90;;
68178;SDS011;54998;42.656;23.382;2023-01-04T06:48:53;12.38;;;7.10;;
68178;SDS011;54998;42.656;23.382;2023-01-04T06:51:20;17.17;;;7.85;;
68178;SDS011;54998;42.656;23.382;2023-01-04T06:53:46;16.17;;;7.32;;
68178;SDS011;54998;42.656;23.382;2023-01-04T06:56:12;20.13;;;9.20;;
68178;SDS011;54998;42.656;23.382;2023-01-04T06:58:38;18.00;;;8.85;;
68178;SDS011;54998;42.656;23.382;2023-01-04T07:01:03;16.23;;;7.15;;
68178;SDS011;54998;42.656;23.382;2023-01-04T07:03:29;20.77;;;9.20;;
68178;SDS011;54998;42.656;23.382;2023-01-04T07:05:54;18.77;;;8.00;;
68178;SDS011;54998;42.656;23.382;2023-01-04T07:08:20;15.55;;;7.55;;
68178;SDS011;54998;42.656;23.382;2023-01-04T07:10:45;19.92;;;7.13;;
68178;SDS011;54998;42.656;23.382;2023-01-04T07:13:11;18.60;;;8.00;;
68178;SDS011;54998;42.656;23.382;2023-01-04T07:15:36;18.67;;;7.95;;
68178;SDS011;54998;42.656;23.382;2023-01-04T07:18:02;17.15;;;7.20;;
68178;SDS011;54998;42.656;23.382;2023-01-04T07:20:28;16.30;;;7.47;;
68178;SDS011;54998;42.656;23.382;2023-01-04T07:25:25;15.10;;;7.35;;
68178;SDS011;54998;42.656;23.382;2023-01-04T07:27:50;14.10;;;7.28;;
68178;SDS011;54998;42.656;23.382;2023-01-04T07:32:43;13.00;;;7.30;;
68178;SDS011;54998;42.656;23.382;2023-01-04T07:35:08;16.55;;;7.88;;
68178;SDS011;54998;42.656;23.382;2023-01-04T07:37:33;12.93;;;6.85;;
68178;SDS011;54998;42.656;23.382;2023-01-04T07:39:59;11.70;;;5.82;;
68178;SDS011;54998;42.656;23.382;2023-01-04T07:42:26;12.50;;;7.55;;
68178;SDS011;54998;42.656;23.382;2023-01-04T07:44:52;17.08;;;6.40;;
68178;SDS011;54998;42.656;23.382;2023-01-04T07:47:17;15.68;;;7.35;;
68178;SDS011;54998;42.656;23.382;2023-01-04T07:49:43;17.00;;;9.80;;
68178;SDS011;54998;42.656;23.382;2023-01-04T07:52:08;12.38;;;6.07;;
68178;SDS011;54998;42.656;23.382;2023-01-04T07:54:33;15.75;;;7.38;;
68178;SDS011;54998;42.656;23.382;2023-01-04T07:56:59;15.75;;;8.50;;
68178;SDS011;54998;42.656;23.382;2023-01-04T07:59:24;12.05;;;6.18;;
68178;SDS011;54998;42.656;23.382;2023-01-04T08:01:50;14.90;;;7.63;;
68178;SDS011;54998;42.656;23.382;2023-01-04T08:04:16;12.63;;;6.97;;
68178;SDS011;54998;42.656;23.382;2023-01-04T08:06:44;13.63;;;6.03;;
68178;SDS011;54998;42.656;23.382;2023-01-04T08:09:11;12.20;;;6.00;;
68178;SDS011;54998;42.656;23.382;2023-01-04T08:11:39;18.27;;;8.85;;
68178;SDS011;54998;42.656;23.382;2023-01-04T08:14:05;15.50;;;7.97;;
68178;SDS011;54998;42.656;23.382;2023-01-04T08:16:32;16.40;;;8.63;;
68178;SDS011;54998;42.656;23.382;2023-01-04T08:19:00;12.93;;;6.97;;
68178;SDS011;54998;42.656;23.382;2023-01-04T08:21:28;16.35;;;8.23;;
68178;SDS011;54998;42.656;23.382;2023-01-04T08:23:54;17.00;;;8.35;;
68178;SDS011;54998;42.656;23.382;2023-01-04T08:26:20;11.60;;;5.40;;
68178;SDS011;54998;42.656;23.382;2023-01-04T08:28:46;14.27;;;7.25;;
68178;SDS011;54998;42.656;23.382;2023-01-04T08:31:14;14.50;;;8.18;;
68178;SDS011;54998;42.656;23.382;2023-01-04T08:33:42;15.35;;;7.57;;
68178;SDS011;54998;42.656;23.382;2023-01-04T08:36:14;18.83;;;8.52;;
68178;SDS011;54998;42.656;23.382;2023-01-04T08:38:49;13.70;;;7.50;;
68178;SDS011;54998;42.656;23.382;2023-01-04T08:41:16;18.55;;;8.43;;
68178;SDS011;54998;42.656;23.382;2023-01-04T08:43:42;16.88;;;7.85;;
68178;SDS011;54998;42.656;23.382;2023-01-04T08:46:08;12.75;;;6.22;;
68178;SDS011;54998;42.656;23.382;2023-01-04T08:48:34;13.93;;;6.95;;
68178;SDS011;54998;42.656;23.382;2023-01-04T08:51:03;15.55;;;7.65;;
68178;SDS011;54998;42.656;23.382;2023-01-04T08:53:31;19.67;;;8.40;;
68178;SDS011;54998;42.656;23.382;2023-01-04T08:55:56;10.05;;;5.53;;
68178;SDS011;54998;42.656;23.382;2023-01-04T08:58:29;14.38;;;8.25;;
68178;SDS011;54998;42.656;23.382;2023-01-04T09:01:05;23.63;;;8.48;;
68178;SDS011;54998;42.656;23.382;2023-01-04T09:03:32;13.63;;;6.18;;
68178;SDS011;54998;42.656;23.382;2023-01-04T09:06:02;16.83;;;8.65;;
68178;SDS011;54998;42.656;23.382;2023-01-04T09:08:29;18.83;;;7.72;;
68178;SDS011;54998;42.656;23.382;2023-01-04T09:11:02;19.70;;;8.95;;
68178;SDS011;54998;42.656;23.382;2023-01-04T09:13:34;19.10;;;9.07;;
68178;SDS011;54998;42.656;23.382;2023-01-04T09:16:00;16.98;;;8.48;;
68178;SDS011;54998;42.656;23.382;2023-01-04T09:18:29;19.25;;;8.98;;
68178;SDS011;54998;42.656;23.382;2023-01-04T09:20:58;20.77;;;9.45;;
68178;SDS011;54998;42.656;23.382;2023-01-04T09:23:29;20.13;;;10.07;;
68178;SDS011;54998;42.656;23.382;2023-01-04T09:25:55;14.60;;;6.47;;
68178;SDS011;54998;42.656;23.382;2023-01-04T09:28:20;29.48;;;8.05;;
68178;SDS011;54998;42.656;23.382;2023-01-04T09:30:45;22.27;;;8.77;;
68178;SDS011;54998;42.656;23.382;2023-01-04T09:33:11;13.93;;;6.75;;
68178;SDS011;54998;42.656;23.382;2023-01-04T09:35:36;21.38;;;9.60;;
68178;SDS011;54998;42.656;23.382;2023-01-04T09:38:02;17.92;;;9.10;;
68178;SDS011;54998;42.656;23.382;2023-01-04T09:40:31;18.83;;;8.35;;
68178;SDS011;54998;42.656;23.382;2023-01-04T09:43:07;19.75;;;9.27;;
68178;SDS011;54998;42.656;23.382;2023-01-04T09:45:42;16.15;;;7.93;;
68178;SDS011;54998;42.656;23.382;2023-01-04T09:48:10;15.27;;;6.03;;
68178;SDS011;54998;42.656;23.382;2023-01-04T09:53:21;16.73;;;7.00;;
68178;SDS011;54998;42.656;23.382;2023-01-04T09:55:53;9.80;;;5.53;;
68178;SDS011;54998;42.656;23.382;2023-01-04T09:58:27;12.13;;;5.43;;
68178;SDS011;54998;42.656;23.382;2023-01-04T10:00:58;17.15;;;8.00;;
68178;SDS011;54998;42.656;23.382;2023-01-04T10:03:45;11.15;;;5.68;;
68178;SDS011;54998;42.656;23.382;2023-01-04T10:06:17;22.15;;;9.45;;
68178;SDS011;54998;42.656;23.382;2023-01-04T10:08:42;15.10;;;7.60;;
68178;SDS011;54998;42.656;23.382;2023-01-04T10:19:29;14.23;;;5.45;;
68178;SDS011;54998;42.656;23.382;2023-01-04T10:22:12;13.68;;;5.95;;
68178;SDS011;54998;42.656;23.382;2023-01-04T10:27:23;15.30;;;6.70;;
68178;SDS011;54998;42.656;23.382;2023-01-04T10:30:15;12.35;;;6.05;;
68178;SDS011;54998;42.656;23.382;2023-01-04T10:33:32;9.75;;;5.30;;
68178;SDS011;54998;42.656;23.382;2023-01-04T10:35:41;17.30;;;7.38;;
68178;SDS011;54998;42.656;23.382;2023-01-04T10:38:31;14.48;;;7.55;;
68178;SDS011;54998;42.656;23.382;2023-01-04T10:40:58;15.32;;;6.63;;
68178;SDS011;54998;42.656;23.382;2023-01-04T10:43:35;15.73;;;7.53;;
68178;SDS011;54998;42.656;23.382;2023-01-04T10:46:24;12.95;;;7.47;;
68178;SDS011;54998;42.656;23.382;2023-01-04T10:51:30;17.30;;;6.60;;
68178;SDS011;54998;42.656;23.382;2023-01-04T10:54:46;17.80;;;7.78;;
68178;SDS011;54998;42.656;23.382;2023-01-04T10:59:42;10.60;;;5.15;;
68178;SDS011;54998;42.656;23.382;2023-01-04T11:02:17;13.73;;;6.78;;
68178;SDS011;54998;42.656;23.382;2023-01-04T11:07:33;14.50;;;6.63;;
68178;SDS011;54998;42.656;23.382;2023-01-04T11:10:07;17.95;;;7.03;;
68178;SDS011;54998;42.656;23.382;2023-01-04T11:12:37;14.77;;;7.32;;
68178;SDS011;54998;42.656;23.382;2023-01-04T11:15:03;14.02;;;6.82;;
68178;SDS011;54998;42.656;23.382;2023-01-04T11:17:29;18.88;;;7.93;;
68178;SDS011;54998;42.656;23.382;2023-01-04T11:22:56;13.57;;;6.65;;
68178;SDS011;54998;42.656;23.382;2023-01-04T11:25:27;14.82;;;7.55;;
68178;SDS011;54998;42.656;23.382;2023-01-04T11:27:58;13.07;;;6.68;;
68178;SDS011;54998;42.656;23.382;2023-01-04T11:30:28;14.20;;;6.78;;
68178;SDS011;54998;42.656;23.382;2023-01-04T11:33:02;16.90;;;8.23;;
68178;SDS011;54998;42.656;23.382;2023-01-04T11:35:39;18.77;;;7.30;;
68178;SDS011;54998;42.656;23.382;2023-01-04T11:38:14;15.07;;;8.05;;
68178;SDS011;54998;42.656;23.382;2023-01-04T11:40:45;12.82;;;6.85;;
68178;SDS011;54998;42.656;23.382;2023-01-04T11:43:35;14.90;;;7.93;;
68178;SDS011;54998;42.656;23.382;2023-01-04T11:48:43;11.02;;;6.13;;
68178;SDS011;54998;42.656;23.382;2023-01-04T11:53:58;15.98;;;7.90;;
68178;SDS011;54998;42.656;23.382;2023-01-04T11:56:39;16.00;;;7.50;;
68178;SDS011;54998;42.656;23.382;2023-01-04T11:59:21;14.15;;;6.78;;
68178;SDS011;54998;42.656;23.382;2023-01-04T12:01:47;12.98;;;6.72;;
68178;SDS011;54998;42.656;23.382;2023-01-04T12:04:15;12.98;;;6.35;;
68178;SDS011;54998;42.656;23.382;2023-01-04T12:06:47;16.88;;;7.35;;
68178;SDS011;54998;42.656;23.382;2023-01-04T12:09:14;13.18;;;6.68;;
68178;SDS011;54998;42.656;23.382;2023-01-04T12:11:42;15.52;;;6.60;;
68178;SDS011;54998;42.656;23.382;2023-01-04T12:14:19;15.43;;;7.25;;
68178;SDS011;54998;42.656;23.382;2023-01-04T12:19:41;13.68;;;7.13;;
68178;SDS011;54998;42.656;23.382;2023-01-04T12:22:24;12.75;;;5.85;;
68178;SDS011;54998;42.656;23.382;2023-01-04T12:24:59;15.02;;;7.20;;
68178;SDS011;54998;42.656;23.382;2023-01-04T12:27:26;14.13;;;6.70;;
68178;SDS011;54998;42.656;23.382;2023-01-04T12:34:51;14.30;;;7.13;;
68178;SDS011;54998;42.656;23.382;2023-01-04T12:40:02;13.20;;;6.78;;
68178;SDS011;54998;42.656;23.382;2023-01-04T12:45:31;15.02;;;6.38;;
68178;SDS011;54998;42.656;23.382;2023-01-04T12:47:57;12.80;;;6.70;;
68178;SDS011;54998;42.656;23.382;2023-01-04T12:51:15;14.75;;;7.78;;
68178;SDS011;54998;42.656;23.382;2023-01-04T12:56:21;15.90;;;7.72;;
68178;SDS011;54998;42.656;23.382;2023-01-04T13:01:38;14.50;;;6.75;;
68178;SDS011;54998;42.656;23.382;2023-01-04T13:06:54;21.85;;;8.13;;
68178;SDS011;54998;42.656;23.382;2023-01-04T13:09:31;17.05;;;8.35;;
68178;SDS011;54998;42.656;23.382;2023-01-04T13:14:35;14.02;;;7.32;;
68178;SDS011;54998;42.656;23.382;2023-01-04T13:19:38;17.88;;;8.02;;
68178;SDS011;54998;42.656;23.382;2023-01-04T13:22:09;16.00;;;7.13;;
68178;SDS011;54998;42.656;23.382;2023-01-04T13:24:41;14.77;;;5.72;;
68178;SDS011;54998;42.656;23.382;2023-01-04T13:34:55;17.48;;;8.70;;
68178;SDS011;54998;42.656;23.382;2023-01-04T13:43:07;18.98;;;8.13;;
68178;SDS011;54998;42.656;23.382;2023-01-04T13:48:22;18.63;;;9.05;;
68178;SDS011;54998;42.656;23.382;2023-01-04T13:51:25;18.67;;;8.43;;
68178;SDS011;54998;42.656;23.382;2023-01-04T13:54:00;17.13;;;7.32;;
68178;SDS011;54998;42.656;23.382;2023-01-04T13:56:28;19.55;;;8.95;;
68178;SDS011;54998;42.656;23.382;2023-01-04T13:58:56;19.38;;;8.77;;
68178;SDS011;54998;42.656;23.382;2023-01-04T14:03:57;16.98;;;8.32;;
68178;SDS011;54998;42.656;23.382;2023-01-04T14:11:34;20.67;;;6.75;;
68178;SDS011;54998;42.656;23.382;2023-01-04T14:33:27;17.45;;;8.43;;
68178;SDS011;54998;42.656;23.382;2023-01-04T14:36:17;13.23;;;7.07;;
68178;SDS011;54998;42.656;23.382;2023-01-04T14:38:43;16.85;;;7.78;;
68178;SDS011;54998;42.656;23.382;2023-01-04T14:43:43;19.30;;;8.95;;
68178;SDS011;54998;42.656;23.382;2023-01-04T14:46:19;24.83;;;8.75;;
68178;SDS011;54998;42.656;23.382;2023-01-04T14:48:45;17.42;;;7.95;;
68178;SDS011;54998;42.656;23.382;2023-01-04T14:51:14;18.95;;;9.25;;
68178;SDS011;54998;42.656;23.382;2023-01-04T14:53:42;18.70;;;7.63;;
68178;SDS011;54998;42.656;23.382;2023-01-04T14:56:11;17.15;;;7.57;;
68178;SDS011;54998;42.656;23.382;2023-01-04T14:58:38;16.90;;;7.82;;
68178;SDS011;54998;42.656;23.382;2023-01-04T15:01:03;15.65;;;6.90;;
68178;SDS011;54998;42.656;23.382;2023-01-04T15:03:29;17.65;;;7.32;;
68178;SDS011;54998;42.656;23.382;2023-01-04T15:05:54;12.73;;;5.40;;
68178;SDS011;54998;42.656;23.382;2023-01-04T15:08:20;16.33;;;7.35;;
68178;SDS011;54998;42.656;23.382;2023-01-04T15:10:46;18.55;;;8.68;;
68178;SDS011;54998;42.656;23.382;2023-01-04T15:13:12;19.40;;;8.85;;
68178;SDS011;54998;42.656;23.382;2023-01-04T15:15:38;21.08;;;9.85;;
68178;SDS011;54998;42.656;23.382;2023-01-04T15:18:03;16.95;;;8.90;;
68178;SDS011;54998;42.656;23.382;2023-01-04T15:20:29;20.45;;;8.95;;
68178;SDS011;54998;42.656;23.382;2023-01-04T15:22:54;20.77;;;7.97;;
68178;SDS011;54998;42.656;23.382;2023-01-04T15:25:20;21.00;;;9.40;;
68178;SDS011;54998;42.656;23.382;2023-01-04T15:27:45;21.33;;;8.88;;
68178;SDS011;54998;42.656;23.382;2023-01-04T15:30:11;24.35;;;9.73;;
68178;SDS011;54998;42.656;23.382;2023-01-04T15:32:37;20.63;;;9.35;;
68178;SDS011;54998;42.656;23.382;2023-01-04T15:35:03;22.48;;;9.07;;
68178;SDS011;54998;42.656;23.382;2023-01-04T15:37:29;17.98;;;7.40;;
68178;SDS011;54998;42.656;23.382;2023-01-04T15:39:55;19.30;;;8.85;;
68178;SDS011;54998;42.656;23.382;2023-01-04T15:42:20;22.90;;;9.38;;
68178;SDS011;54998;42.656;23.382;2023-01-04T15:45:04;18.52;;;8.73;;
68178;SDS011;54998;42.656;23.382;2023-01-04T15:47:30;19.77;;;8.57;;
68178;SDS011;54998;42.656;23.382;2023-01-04T15:49:56;22.50;;;10.00;;
68178;SDS011;54998;42.656;23.382;2023-01-04T15:52:22;22.35;;;9.65;;
68178;SDS011;54998;42.656;23.382;2023-01-04T15:54:48;25.48;;;10.98;;
68178;SDS011;54998;42.656;23.382;2023-01-04T15:57:13;24.95;;;11.05;;
68178;SDS011;54998;42.656;23.382;2023-01-04T15:59:39;24.88;;;10.55;;
68178;SDS011;54998;42.656;23.382;2023-01-04T16:02:04;26.25;;;11.65;;
68178;SDS011;54998;42.656;23.382;2023-01-04T16:04:30;27.33;;;11.20;;
68178;SDS011;54998;42.656;23.382;2023-01-04T16:06:56;22.63;;;11.38;;
68178;SDS011;54998;42.656;23.382;2023-01-04T16:09:22;24.67;;;11.18;;
68178;SDS011;54998;42.656;23.382;2023-01-04T16:11:47;23.55;;;12.63;;
68178;SDS011;54998;42.656;23.382;2023-01-04T16:14:31;25.67;;;10.40;;
68178;SDS011;54998;42.656;23.382;2023-01-04T16:16:56;24.10;;;10.18;;
68178;SDS011;54998;42.656;23.382;2023-01-04T16:19:22;25.05;;;10.90;;
68178;SDS011;54998;42.656;23.382;2023-01-04T16:21:47;26.95;;;12.98;;
68178;SDS011;54998;42.656;23.382;2023-01-04T16:24:12;24.15;;;10.73;;
68178;SDS011;54998;42.656;23.382;2023-01-04T16:26:38;35.83;;;12.65;;
68178;SDS011;54998;42.656;23.382;2023-01-04T16:29:03;21.10;;;10.32;;
68178;SDS011;54998;42.656;23.382;2023-01-04T16:31:32;23.90;;;11.07;;
68178;SDS011;54998;42.656;23.382;2023-01-04T17:34:36;28.58;;;12.95;;
68178;SDS011;54998;42.656;23.382;2023-01-04T17:37:02;28.67;;;12.90;;
68178;SDS011;54998;42.656;23.382;2023-01-04T17:39:27;32.22;;;13.57;;
68178;SDS011;54998;42.656;23.382;2023-01-04T17:41:55;30.30;;;14.55;;
68178;SDS011;54998;42.656;23.382;2023-01-04T17:44:22;27.33;;;12.43;;